Bo Liceo, Puerto Rico
Current Conditions -  °F | °C
As of 6:50 PM on Thursday 27 Nov 2014 (Local Time) from TJBQ Reporting Station
Scattered Clouds Scattered Clouds  
Wind Chill: 77°   Ceiling: Unl
Heat Index: 79°   Visibility: 10mi
Dew Point: 70°   Wind: 3mph
Humidity: 78%   Direction: 130°SE
Pressure: 29.96"   Gusts: NA
Location:  18.2038°N, 67.1453°W
Report Text: TJBQ 272250Z 13003KT 10SM SCT055 25/21 A2996 RMK RWY08 ATIS J
Loading
Personal Weather Stations






























Interactive Weather Map New forecast layout! Learn more

10-Day Weather Forecast

Advertisements
Track Severe Weather on mobile